sensor_id;sensor_type;location;lat;lon;timestamp;temperature;humidity
31765;DHT22;18338;53.240;8.798;2023-07-20T00:00:03;14.70;99.90
31765;DHT22;18338;53.240;8.798;2023-07-20T00:02:30;14.70;99.90
31765;DHT22;18338;53.240;8.798;2023-07-20T00:04:57;14.70;99.90
31765;DHT22;18338;53.240;8.798;2023-07-20T00:07:23;14.70;99.90
31765;DHT22;18338;53.240;8.798;2023-07-20T00:09:51;14.70;99.90
31765;DHT22;18338;53.240;8.798;2023-07-20T00:12:18;14.60;99.90
31765;DHT22;18338;53.240;8.798;2023-07-20T00:14:44;14.50;99.90
31765;DHT22;18338;53.240;8.798;2023-07-20T00:17:11;14.40;99.90
31765;DHT22;18338;53.240;8.798;2023-07-20T00:19:38;14.40;99.90
31765;DHT22;18338;53.240;8.798;2023-07-20T00:22:05;14.20;99.90
31765;DHT22;18338;53.240;8.798;2023-07-20T00:24:31;14.20;99.90
31765;DHT22;18338;53.240;8.798;2023-07-20T00:26:59;14.20;99.90
31765;DHT22;18338;53.240;8.798;2023-07-20T00:29:27;14.10;99.90
31765;DHT22;18338;53.240;8.798;2023-07-20T00:31:54;14.10;99.90
31765;DHT22;18338;53.240;8.798;2023-07-20T00:34:21;14.10;99.90
31765;DHT22;18338;53.240;8.798;2023-07-20T00:36:48;14.10;99.90
31765;DHT22;18338;53.240;8.798;2023-07-20T00:39:15;14.00;99.90
31765;DHT22;18338;53.240;8.798;2023-07-20T00:41:43;14.00;99.90
31765;DHT22;18338;53.240;8.798;2023-07-20T00:44:10;14.10;99.90
31765;DHT22;18338;53.240;8.798;2023-07-20T00:46:37;14.00;99.90
31765;DHT22;18338;53.240;8.798;2023-07-20T00:49:05;14.00;99.90
31765;DHT22;18338;53.240;8.798;2023-07-20T00:51:33;14.00;99.90
31765;DHT22;18338;53.240;8.798;2023-07-20T00:54:00;14.10;99.90
31765;DHT22;18338;53.240;8.798;2023-07-20T00:56:27;14.00;99.90
31765;DHT22;18338;53.240;8.798;2023-07-20T00:58:53;14.00;99.90
31765;DHT22;18338;53.240;8.798;2023-07-20T01:01:21;14.00;99.90
31765;DHT22;18338;53.240;8.798;2023-07-20T01:03:48;14.10;99.90
31765;DHT22;18338;53.240;8.798;2023-07-20T01:09:09;14.10;99.90
31765;DHT22;18338;53.240;8.798;2023-07-20T01:11:47;14.10;99.90
31765;DHT22;18338;53.240;8.798;2023-07-20T01:14:17;14.10;99.90
31765;DHT22;18338;53.240;8.798;2023-07-20T01:16:44;14.10;99.90
31765;DHT22;18338;53.240;8.798;2023-07-20T01:19:13;14.10;99.90
31765;DHT22;18338;53.240;8.798;2023-07-20T01:24:42;14.20;99.90
31765;DHT22;18338;53.240;8.798;2023-07-20T01:30:20;14.10;99.90
31765;DHT22;18338;53.240;8.798;2023-07-20T01:32:54;14.20;99.90
31765;DHT22;18338;53.240;8.798;2023-07-20T01:37:53;14.20;99.90
31765;DHT22;18338;53.240;8.798;2023-07-20T01:40:21;14.20;99.90
31765;DHT22;18338;53.240;8.798;2023-07-20T01:42:48;14.20;99.90
31765;DHT22;18338;53.240;8.798;2023-07-20T01:45:15;14.20;99.90
31765;DHT22;18338;53.240;8.798;2023-07-20T01:47:42;14.30;99.90
31765;DHT22;18338;53.240;8.798;2023-07-20T01:50:09;14.30;99.90
31765;DHT22;18338;53.240;8.798;2023-07-20T01:52:36;14.30;99.90
31765;DHT22;18338;53.240;8.798;2023-07-20T01:55:03;14.30;99.90
31765;DHT22;18338;53.240;8.798;2023-07-20T01:57:30;14.30;99.90
31765;DHT22;18338;53.240;8.798;2023-07-20T01:59:57;14.40;99.90
31765;DHT22;18338;53.240;8.798;2023-07-20T02:02:26;14.40;99.90
31765;DHT22;18338;53.240;8.798;2023-07-20T02:04:54;14.40;99.90
31765;DHT22;18338;53.240;8.798;2023-07-20T02:07:21;14.30;99.90
31765;DHT22;18338;53.240;8.798;2023-07-20T02:09:47;14.30;99.90
31765;DHT22;18338;53.240;8.798;2023-07-20T02:12:14;14.30;99.90
31765;DHT22;18338;53.240;8.798;2023-07-20T02:14:41;14.30;99.90
31765;DHT22;18338;53.240;8.798;2023-07-20T02:17:08;14.30;99.90
31765;DHT22;18338;53.240;8.798;2023-07-20T02:19:37;14.30;99.90
31765;DHT22;18338;53.240;8.798;2023-07-20T02:22:04;14.30;99.90
31765;DHT22;18338;53.240;8.798;2023-07-20T02:24:32;14.30;99.90
31765;DHT22;18338;53.240;8.798;2023-07-20T02:26:59;14.30;99.90
31765;DHT22;18338;53.240;8.798;2023-07-20T02:29:25;14.30;99.90
31765;DHT22;18338;53.240;8.798;2023-07-20T02:31:52;14.30;99.90
31765;DHT22;18338;53.240;8.798;2023-07-20T02:34:19;14.30;99.90
31765;DHT22;18338;53.240;8.798;2023-07-20T02:36:45;14.20;99.90
31765;DHT22;18338;53.240;8.798;2023-07-20T02:39:12;14.30;99.90
31765;DHT22;18338;53.240;8.798;2023-07-20T02:41:39;14.30;99.90
31765;DHT22;18338;53.240;8.798;2023-07-20T02:44:05;14.20;99.90
31765;DHT22;18338;53.240;8.798;2023-07-20T02:46:32;14.30;99.90
31765;DHT22;18338;53.240;8.798;2023-07-20T02:48:59;14.20;99.90
31765;DHT22;18338;53.240;8.798;2023-07-20T02:51:25;14.30;99.90
31765;DHT22;18338;53.240;8.798;2023-07-20T02:53:52;14.30;99.90
31765;DHT22;18338;53.240;8.798;2023-07-20T02:56:19;14.30;99.90
31765;DHT22;18338;53.240;8.798;2023-07-20T02:58:46;14.30;99.90
31765;DHT22;18338;53.240;8.798;2023-07-20T03:01:13;14.30;99.90
31765;DHT22;18338;53.240;8.798;2023-07-20T03:03:42;14.30;99.90
31765;DHT22;18338;53.240;8.798;2023-07-20T03:06:14;14.30;99.90
31765;DHT22;18338;53.240;8.798;2023-07-20T03:08:42;14.30;99.90
31765;DHT22;18338;53.240;8.798;2023-07-20T03:11:11;14.30;99.90
31765;DHT22;18338;53.240;8.798;2023-07-20T03:13:38;14.30;99.90
31765;DHT22;18338;53.240;8.798;2023-07-20T03:16:05;14.30;99.90
31765;DHT22;18338;53.240;8.798;2023-07-20T03:18:31;14.30;99.90
31765;DHT22;18338;53.240;8.798;2023-07-20T03:20:58;14.30;99.90
31765;DHT22;18338;53.240;8.798;2023-07-20T03:23:24;14.30;99.90
31765;DHT22;18338;53.240;8.798;2023-07-20T03:25:52;14.40;99.90
31765;DHT22;18338;53.240;8.798;2023-07-20T03:28:21;14.40;99.90
31765;DHT22;18338;53.240;8.798;2023-07-20T03:30:57;14.40;99.90
31765;DHT22;18338;53.240;8.798;2023-07-20T03:33:31;14.40;99.90
31765;DHT22;18338;53.240;8.798;2023-07-20T03:35:58;14.30;99.90
31765;DHT22;18338;53.240;8.798;2023-07-20T03:38:25;14.30;99.90
31765;DHT22;18338;53.240;8.798;2023-07-20T03:43:22;14.30;99.90
31765;DHT22;18338;53.240;8.798;2023-07-20T03:45:50;14.30;99.90
31765;DHT22;18338;53.240;8.798;2023-07-20T03:48:21;14.40;99.90
31765;DHT22;18338;53.240;8.798;2023-07-20T03:50:49;14.30;99.90
31765;DHT22;18338;53.240;8.798;2023-07-20T03:53:16;14.40;99.90
31765;DHT22;18338;53.240;8.798;2023-07-20T03:55:50;14.40;99.90
31765;DHT22;18338;53.240;8.798;2023-07-20T03:58:19;14.40;99.90
31765;DHT22;18338;53.240;8.798;2023-07-20T04:00:47;14.40;99.90
31765;DHT22;18338;53.240;8.798;2023-07-20T04:03:14;14.40;99.90
31765;DHT22;18338;53.240;8.798;2023-07-20T04:05:41;14.30;99.90
31765;DHT22;18338;53.240;8.798;2023-07-20T04:08:09;14.40;99.90
31765;DHT22;18338;53.240;8.798;2023-07-20T04:10:38;14.30;99.90
31765;DHT22;18338;53.240;8.798;2023-07-20T04:13:05;14.30;99.90
31765;DHT22;18338;53.240;8.798;2023-07-20T04:15:32;14.30;99.90
31765;DHT22;18338;53.240;8.798;2023-07-20T04:17:59;14.20;99.90
31765;DHT22;18338;53.240;8.798;2023-07-20T04:20:25;14.20;99.90
31765;DHT22;18338;53.240;8.798;2023-07-20T04:22:52;14.10;99.90
31765;DHT22;18338;53.240;8.798;2023-07-20T04:25:20;14.20;99.90
31765;DHT22;18338;53.240;8.798;2023-07-20T04:27:47;14.20;99.90
31765;DHT22;18338;53.240;8.798;2023-07-20T04:30:17;14.20;99.90
31765;DHT22;18338;53.240;8.798;2023-07-20T04:32:46;14.20;99.90
31765;DHT22;18338;53.240;8.798;2023-07-20T04:35:46;14.20;99.90
31765;DHT22;18338;53.240;8.798;2023-07-20T04:38:14;14.10;99.90
31765;DHT22;18338;53.240;8.798;2023-07-20T04:40:45;14.10;99.90
31765;DHT22;18338;53.240;8.798;2023-07-20T04:43:13;14.10;99.90
31765;DHT22;18338;53.240;8.798;2023-07-20T04:45:40;14.00;99.90
31765;DHT22;18338;53.240;8.798;2023-07-20T04:48:09;14.10;99.90
31765;DHT22;18338;53.240;8.798;2023-07-20T04:50:43;14.10;99.90
31765;DHT22;18338;53.240;8.798;2023-07-20T04:53:12;14.10;99.90
31765;DHT22;18338;53.240;8.798;2023-07-20T04:55:39;14.10;99.90
31765;DHT22;18338;53.240;8.798;2023-07-20T04:58:07;14.20;99.90
31765;DHT22;18338;53.240;8.798;2023-07-20T05:00:33;14.40;99.90
31765;DHT22;18338;53.240;8.798;2023-07-20T05:03:00;14.30;99.90
31765;DHT22;18338;53.240;8.798;2023-07-20T05:05:27;14.30;99.90
31765;DHT22;18338;53.240;8.798;2023-07-20T05:07:54;14.20;99.90
31765;DHT22;18338;53.240;8.798;2023-07-20T05:10:21;14.20;99.90
31765;DHT22;18338;53.240;8.798;2023-07-20T05:12:47;14.20;99.90
31765;DHT22;18338;53.240;8.798;2023-07-20T05:15:14;14.20;99.90
31765;DHT22;18338;53.240;8.798;2023-07-20T05:17:41;14.30;99.90
31765;DHT22;18338;53.240;8.798;2023-07-20T05:20:08;14.30;99.90
31765;DHT22;18338;53.240;8.798;2023-07-20T05:22:38;14.30;99.90
31765;DHT22;18338;53.240;8.798;2023-07-20T05:25:09;14.40;99.90
31765;DHT22;18338;53.240;8.798;2023-07-20T05:27:37;14.40;99.90
31765;DHT22;18338;53.240;8.798;2023-07-20T05:30:05;14.50;99.90
31765;DHT22;18338;53.240;8.798;2023-07-20T05:32:31;14.50;99.90
31765;DHT22;18338;53.240;8.798;2023-07-20T05:34:58;14.60;99.90
31765;DHT22;18338;53.240;8.798;2023-07-20T05:37:25;14.60;99.90
31765;DHT22;18338;53.240;8.798;2023-07-20T05:39:52;14.80;99.90
31765;DHT22;18338;53.240;8.798;2023-07-20T05:42:18;15.10;99.90
31765;DHT22;18338;53.240;8.798;2023-07-20T05:44:45;15.00;99.90
31765;DHT22;18338;53.240;8.798;2023-07-20T05:47:13;15.00;99.90
31765;DHT22;18338;53.240;8.798;2023-07-20T05:49:40;15.10;99.90
31765;DHT22;18338;53.240;8.798;2023-07-20T05:52:07;15.20;99.90
31765;DHT22;18338;53.240;8.798;2023-07-20T05:54:33;15.60;99.90
31765;DHT22;18338;53.240;8.798;2023-07-20T05:57:00;15.60;99.90
31765;DHT22;18338;53.240;8.798;2023-07-20T05:59:27;15.50;99.90
31765;DHT22;18338;53.240;8.798;2023-07-20T06:01:58;15.40;99.90
31765;DHT22;18338;53.240;8.798;2023-07-20T06:04:24;15.30;99.90
31765;DHT22;18338;53.240;8.798;2023-07-20T06:06:51;15.40;99.90
31765;DHT22;18338;53.240;8.798;2023-07-20T06:09:18;15.60;99.90
31765;DHT22;18338;53.240;8.798;2023-07-20T06:11:45;15.80;99.90
31765;DHT22;18338;53.240;8.798;2023-07-20T06:14:12;15.90;99.90
31765;DHT22;18338;53.240;8.798;2023-07-20T06:16:39;16.10;99.90
31765;DHT22;18338;53.240;8.798;2023-07-20T06:19:05;16.10;99.90
31765;DHT22;18338;53.240;8.798;2023-07-20T06:21:32;16.20;99.90
31765;DHT22;18338;53.240;8.798;2023-07-20T06:23:59;16.30;99.90
31765;DHT22;18338;53.240;8.798;2023-07-20T06:26:25;16.20;99.90
31765;DHT22;18338;53.240;8.798;2023-07-20T06:28:52;16.30;99.90
31765;DHT22;18338;53.240;8.798;2023-07-20T06:31:19;16.20;99.90
31765;DHT22;18338;53.240;8.798;2023-07-20T06:33:46;16.20;99.90
31765;DHT22;18338;53.240;8.798;2023-07-20T06:36:13;16.10;99.90
31765;DHT22;18338;53.240;8.798;2023-07-20T06:38:39;15.90;99.90
31765;DHT22;18338;53.240;8.798;2023-07-20T06:41:07;15.80;99.90
31765;DHT22;18338;53.240;8.798;2023-07-20T06:43:36;15.60;99.90
31765;DHT22;18338;53.240;8.798;2023-07-20T06:46:06;15.50;99.90
31765;DHT22;18338;53.240;8.798;2023-07-20T06:48:32;15.40;99.90
31765;DHT22;18338;53.240;8.798;2023-07-20T06:51:20;15.40;99.90
31765;DHT22;18338;53.240;8.798;2023-07-20T06:53:47;15.40;99.90
31765;DHT22;18338;53.240;8.798;2023-07-20T06:56:14;15.40;99.90
31765;DHT22;18338;53.240;8.798;2023-07-20T06:58:40;15.50;99.90
31765;DHT22;18338;53.240;8.798;2023-07-20T07:01:08;15.70;99.90
31765;DHT22;18338;53.240;8.798;2023-07-20T07:03:35;15.70;99.90
31765;DHT22;18338;53.240;8.798;2023-07-20T07:06:03;15.80;99.90
31765;DHT22;18338;53.240;8.798;2023-07-20T07:08:30;15.90;99.90
31765;DHT22;18338;53.240;8.798;2023-07-20T07:10:57;16.00;99.90
31765;DHT22;18338;53.240;8.798;2023-07-20T07:13:23;16.10;99.90
31765;DHT22;18338;53.240;8.798;2023-07-20T07:15:51;16.20;99.90
31765;DHT22;18338;53.240;8.798;2023-07-20T07:18:18;16.30;99.90
31765;DHT22;18338;53.240;8.798;2023-07-20T07:20:51;16.20;99.90
31765;DHT22;18338;53.240;8.798;2023-07-20T07:23:18;16.40;99.90
31765;DHT22;18338;53.240;8.798;2023-07-20T07:25:45;16.40;99.90
31765;DHT22;18338;53.240;8.798;2023-07-20T07:28:12;16.40;99.90
31765;DHT22;18338;53.240;8.798;2023-07-20T07:30:40;16.50;99.90
31765;DHT22;18338;53.240;8.798;2023-07-20T07:33:06;16.60;99.90
31765;DHT22;18338;53.240;8.798;2023-07-20T07:38:01;16.70;99.90
31765;DHT22;18338;53.240;8.798;2023-07-20T07:40:47;16.70;99.90
31765;DHT22;18338;53.240;8.798;2023-07-20T07:43:14;16.80;99.90
31765;DHT22;18338;53.240;8.798;2023-07-20T07:45:41;17.00;99.90
31765;DHT22;18338;53.240;8.798;2023-07-20T07:48:07;17.20;99.90
31765;DHT22;18338;53.240;8.798;2023-07-20T07:50:34;17.40;99.90
31765;DHT22;18338;53.240;8.798;2023-07-20T07:53:01;17.70;99.90
31765;DHT22;18338;53.240;8.798;2023-07-20T07:55:29;18.00;99.90
31765;DHT22;18338;53.240;8.798;2023-07-20T07:57:56;18.20;99.90
31765;DHT22;18338;53.240;8.798;2023-07-20T08:00:22;18.50;99.90
31765;DHT22;18338;53.240;8.798;2023-07-20T08:02:50;18.80;99.90
31765;DHT22;18338;53.240;8.798;2023-07-20T08:05:17;19.10;99.90
31765;DHT22;18338;53.240;8.798;2023-07-20T08:07:44;19.10;99.90
31765;DHT22;18338;53.240;8.798;2023-07-20T08:10:12;18.90;99.90
31765;DHT22;18338;53.240;8.798;2023-07-20T08:12:38;18.50;99.90
31765;DHT22;18338;53.240;8.798;2023-07-20T08:15:05;18.40;99.90
31765;DHT22;18338;53.240;8.798;2023-07-20T08:17:32;18.40;99.90
31765;DHT22;18338;53.240;8.798;2023-07-20T08:19:59;18.60;99.90
31765;DHT22;18338;53.240;8.798;2023-07-20T08:22:26;18.90;99.90
31765;DHT22;18338;53.240;8.798;2023-07-20T08:24:53;19.70;99.90
31765;DHT22;18338;53.240;8.798;2023-07-20T08:27:20;20.30;99.90
31765;DHT22;18338;53.240;8.798;2023-07-20T08:29:46;21.10;99.90
31765;DHT22;18338;53.240;8.798;2023-07-20T08:32:13;22.10;99.90
31765;DHT22;18338;53.240;8.798;2023-07-20T08:34:42;23.50;99.90
31765;DHT22;18338;53.240;8.798;2023-07-20T08:37:09;25.10;99.90
31765;DHT22;18338;53.240;8.798;2023-07-20T08:39:36;24.50;99.90
31765;DHT22;18338;53.240;8.798;2023-07-20T08:42:04;23.00;99.90
31765;DHT22;18338;53.240;8.798;2023-07-20T08:44:33;21.40;99.90
31765;DHT22;18338;53.240;8.798;2023-07-20T08:47:02;21.20;99.90
31765;DHT22;18338;53.240;8.798;2023-07-20T08:49:33;23.30;99.90
31765;DHT22;18338;53.240;8.798;2023-07-20T08:52:00;24.80;99.90
31765;DHT22;18338;53.240;8.798;2023-07-20T08:54:30;27.00;99.90
31765;DHT22;18338;53.240;8.798;2023-07-20T08:57:03;28.90;94.20
31765;DHT22;18338;53.240;8.798;2023-07-20T08:59:31;28.80;91.40
31765;DHT22;18338;53.240;8.798;2023-07-20T09:01:59;27.20;92.50
31765;DHT22;18338;53.240;8.798;2023-07-20T09:04:27;25.20;95.00
31765;DHT22;18338;53.240;8.798;2023-07-20T09:06:53;23.40;98.90
31765;DHT22;18338;53.240;8.798;2023-07-20T09:09:21;23.30;99.90
31765;DHT22;18338;53.240;8.798;2023-07-20T09:11:49;23.80;99.90
31765;DHT22;18338;53.240;8.798;2023-07-20T09:14:16;25.50;98.80
31765;DHT22;18338;53.240;8.798;2023-07-20T09:16:54;27.80;95.20
31765;DHT22;18338;53.240;8.798;2023-07-20T09:19:21;27.80;90.70
31765;DHT22;18338;53.240;8.798;2023-07-20T09:21:50;26.80;91.60
31765;DHT22;18338;53.240;8.798;2023-07-20T09:24:18;25.40;94.30
31765;DHT22;18338;53.240;8.798;2023-07-20T09:26:46;23.50;99.00
31765;DHT22;18338;53.240;8.798;2023-07-20T09:29:18;21.40;99.90
31765;DHT22;18338;53.240;8.798;2023-07-20T09:32:07;20.40;99.90
31765;DHT22;18338;53.240;8.798;2023-07-20T09:34:50;19.60;99.90
31765;DHT22;18338;53.240;8.798;2023-07-20T09:37:21;20.10;99.90
31765;DHT22;18338;53.240;8.798;2023-07-20T09:39:53;20.30;99.90
31765;DHT22;18338;53.240;8.798;2023-07-20T09:42:23;20.70;99.90
31765;DHT22;18338;53.240;8.798;2023-07-20T09:44:55;22.60;99.90
31765;DHT22;18338;53.240;8.798;2023-07-20T09:47:23;23.70;99.90
31765;DHT22;18338;53.240;8.798;2023-07-20T09:49:58;25.20;99.90
31765;DHT22;18338;53.240;8.798;2023-07-20T09:52:29;28.00;98.00
31765;DHT22;18338;53.240;8.798;2023-07-20T09:54:59;27.70;93.60
31765;DHT22;18338;53.240;8.798;2023-07-20T09:57:28;28.70;94.50
31765;DHT22;18338;53.240;8.798;2023-07-20T09:59:54;28.10;91.70
31765;DHT22;18338;53.240;8.798;2023-07-20T10:02:25;28.70;92.50
31765;DHT22;18338;53.240;8.798;2023-07-20T10:05:01;28.90;91.90
31765;DHT22;18338;53.240;8.798;2023-07-20T10:07:30;28.20;91.10
31765;DHT22;18338;53.240;8.798;2023-07-20T10:09:59;26.70;94.50
31765;DHT22;18338;53.240;8.798;2023-07-20T10:12:28;27.00;94.10
31765;DHT22;18338;53.240;8.798;2023-07-20T10:15:19;28.20;93.00
31765;DHT22;18338;53.240;8.798;2023-07-20T10:17:57;29.60;88.00
31765;DHT22;18338;53.240;8.798;2023-07-20T10:20:25;30.00;84.70
31765;DHT22;18338;53.240;8.798;2023-07-20T10:22:53;28.70;86.90
31765;DHT22;18338;53.240;8.798;2023-07-20T10:25:24;28.40;86.10
31765;DHT22;18338;53.240;8.798;2023-07-20T10:27:51;28.30;85.30
31765;DHT22;18338;53.240;8.798;2023-07-20T10:30:18;30.40;89.50
31765;DHT22;18338;53.240;8.798;2023-07-20T10:32:47;31.50;80.80
31765;DHT22;18338;53.240;8.798;2023-07-20T10:35:15;31.40;78.10
31765;DHT22;18338;53.240;8.798;2023-07-20T10:37:50;31.40;78.20
31765;DHT22;18338;53.240;8.798;2023-07-20T10:43:06;27.90;86.50
31765;DHT22;18338;53.240;8.798;2023-07-20T10:45:41;28.40;82.20
31765;DHT22;18338;53.240;8.798;2023-07-20T10:48:16;28.20;85.10
31765;DHT22;18338;53.240;8.798;2023-07-20T10:50:43;30.90;82.00
31765;DHT22;18338;53.240;8.798;2023-07-20T10:53:18;29.80;82.30
31765;DHT22;18338;53.240;8.798;2023-07-20T10:55:45;27.00;89.20
31765;DHT22;18338;53.240;8.798;2023-07-20T10:58:16;27.20;90.90
31765;DHT22;18338;53.240;8.798;2023-07-20T11:01:03;27.30;92.00
31765;DHT22;18338;53.240;8.798;2023-07-20T11:03:37;26.90;91.40
31765;DHT22;18338;53.240;8.798;2023-07-20T11:09:07;30.80;83.10
31765;DHT22;18338;53.240;8.798;2023-07-20T11:11:36;30.40;82.70
31765;DHT22;18338;53.240;8.798;2023-07-20T11:14:09;29.60;80.70
31765;DHT22;18338;53.240;8.798;2023-07-20T11:16:47;29.90;86.60
31765;DHT22;18338;53.240;8.798;2023-07-20T11:19:20;30.10;80.20
31765;DHT22;18338;53.240;8.798;2023-07-20T11:21:55;30.00;78.10
31765;DHT22;18338;53.240;8.798;2023-07-20T11:24:30;27.30;82.60
31765;DHT22;18338;53.240;8.798;2023-07-20T11:26:57;23.80;92.50
31765;DHT22;18338;53.240;8.798;2023-07-20T11:29:24;23.60;97.30
31765;DHT22;18338;53.240;8.798;2023-07-20T11:32:00;23.80;95.50
31765;DHT22;18338;53.240;8.798;2023-07-20T11:34:30;23.30;96.00
31765;DHT22;18338;53.240;8.798;2023-07-20T11:36:57;22.90;97.70
31765;DHT22;18338;53.240;8.798;2023-07-20T11:39:27;24.60;95.80
31765;DHT22;18338;53.240;8.798;2023-07-20T11:41:56;26.80;91.10
31765;DHT22;18338;53.240;8.798;2023-07-20T11:44:25;28.20;91.20
31765;DHT22;18338;53.240;8.798;2023-07-20T11:49:35;31.00;80.30
31765;DHT22;18338;53.240;8.798;2023-07-20T11:52:08;31.90;72.90
31765;DHT22;18338;53.240;8.798;2023-07-20T11:54:39;30.70;74.40
31765;DHT22;18338;53.240;8.798;2023-07-20T11:57:19;29.70;76.60
31765;DHT22;18338;53.240;8.798;2023-07-20T12:00:03;27.60;80.90
31765;DHT22;18338;53.240;8.798;2023-07-20T12:02:37;26.40;89.20
31765;DHT22;18338;53.240;8.798;2023-07-20T12:05:04;24.90;92.70
31765;DHT22;18338;53.240;8.798;2023-07-20T12:07:35;24.10;94.90
31765;DHT22;18338;53.240;8.798;2023-07-20T12:10:11;24.30;97.90
31765;DHT22;18338;53.240;8.798;2023-07-20T12:12:39;24.70;97.90
31765;DHT22;18338;53.240;8.798;2023-07-20T12:15:17;25.00;98.80
31765;DHT22;18338;53.240;8.798;2023-07-20T12:17:49;23.40;99.90
31765;DHT22;18338;53.240;8.798;2023-07-20T12:20:33;22.90;99.90
31765;DHT22;18338;53.240;8.798;2023-07-20T12:23:08;24.50;97.20
31765;DHT22;18338;53.240;8.798;2023-07-20T12:25:40;24.70;94.80
31765;DHT22;18338;53.240;8.798;2023-07-20T12:28:12;23.70;96.70
31765;DHT22;18338;53.240;8.798;2023-07-20T12:30:40;23.70;97.90
31765;DHT22;18338;53.240;8.798;2023-07-20T12:33:08;23.70;98.50
31765;DHT22;18338;53.240;8.798;2023-07-20T12:35:35;24.90;98.00
31765;DHT22;18338;53.240;8.798;2023-07-20T12:38:02;25.40;94.40
31765;DHT22;18338;53.240;8.798;2023-07-20T12:40:29;25.90;94.70
31765;DHT22;18338;53.240;8.798;2023-07-20T12:42:56;27.30;92.00
31765;DHT22;18338;53.240;8.798;2023-07-20T12:45:23;26.90;91.30
31765;DHT22;18338;53.240;8.798;2023-07-20T12:47:50;27.10;92.40
31765;DHT22;18338;53.240;8.798;2023-07-20T12:50:17;26.50;91.80
31765;DHT22;18338;53.240;8.798;2023-07-20T12:52:44;27.20;91.10
31765;DHT22;18338;53.240;8.798;2023-07-20T12:55:11;27.90;92.00
31765;DHT22;18338;53.240;8.798;2023-07-20T12:57:38;28.70;90.20
31765;DHT22;18338;53.240;8.798;2023-07-20T13:00:07;28.20;88.60
31765;DHT22;18338;53.240;8.798;2023-07-20T13:02:38;27.20;90.80
31765;DHT22;18338;53.240;8.798;2023-07-20T13:05:05;26.60;92.20
31765;DHT22;18338;53.240;8.798;2023-07-20T13:07:34;26.50;93.60
31765;DHT22;18338;53.240;8.798;2023-07-20T13:10:05;25.90;92.70
31765;DHT22;18338;53.240;8.798;2023-07-20T13:12:33;26.60;98.20
31765;DHT22;18338;53.240;8.798;2023-07-20T13:15:02;28.60;92.60
31765;DHT22;18338;53.240;8.798;2023-07-20T13:17:36;29.60;90.10
31765;DHT22;18338;53.240;8.798;2023-07-20T13:20:07;30.40;89.60
31765;DHT22;18338;53.240;8.798;2023-07-20T13:22:38;30.70;81.10
31765;DHT22;18338;53.240;8.798;2023-07-20T13:25:06;30.80;83.90
31765;DHT22;18338;53.240;8.798;2023-07-20T13:27:33;29.00;84.70
31765;DHT22;18338;53.240;8.798;2023-07-20T13:30:00;27.30;86.70
31765;DHT22;18338;53.240;8.798;2023-07-20T13:32:29;25.90;90.10
31765;DHT22;18338;53.240;8.798;2023-07-20T13:35:00;26.50;90.70
31765;DHT22;18338;53.240;8.798;2023-07-20T13:37:27;28.70;86.60
31765;DHT22;18338;53.240;8.798;2023-07-20T13:39:54;29.80;85.60
31765;DHT22;18338;53.240;8.798;2023-07-20T13:42:23;28.50;87.70
31765;DHT22;18338;53.240;8.798;2023-07-20T13:44:49;26.00;91.90
31765;DHT22;18338;53.240;8.798;2023-07-20T13:47:16;24.30;99.00
31765;DHT22;18338;53.240;8.798;2023-07-20T13:49:46;23.50;99.90
31765;DHT22;18338;53.240;8.798;2023-07-20T13:52:14;23.70;99.90
31765;DHT22;18338;53.240;8.798;2023-07-20T13:54:44;24.40;99.90
31765;DHT22;18338;53.240;8.798;2023-07-20T13:57:16;26.10;96.30
31765;DHT22;18338;53.240;8.798;2023-07-20T13:59:44;26.00;94.40
31765;DHT22;18338;53.240;8.798;2023-07-20T14:02:11;24.80;97.50
31765;DHT22;18338;53.240;8.798;2023-07-20T14:04:41;24.00;98.10
31765;DHT22;18338;53.240;8.798;2023-07-20T14:07:08;22.80;99.90
31765;DHT22;18338;53.240;8.798;2023-07-20T14:09:36;21.00;99.90
31765;DHT22;18338;53.240;8.798;2023-07-20T14:12:03;19.80;99.90
31765;DHT22;18338;53.240;8.798;2023-07-20T14:14:33;19.70;99.90
31765;DHT22;18338;53.240;8.798;2023-07-20T14:17:00;20.90;99.90
31765;DHT22;18338;53.240;8.798;2023-07-20T14:19:27;22.80;99.90
31765;DHT22;18338;53.240;8.798;2023-07-20T14:21:53;23.50;99.90
31765;DHT22;18338;53.240;8.798;2023-07-20T14:24:21;23.00;99.90
31765;DHT22;18338;53.240;8.798;2023-07-20T14:26:48;23.70;99.90
31765;DHT22;18338;53.240;8.798;2023-07-20T14:29:18;25.30;99.90
31765;DHT22;18338;53.240;8.798;2023-07-20T14:31:45;27.50;99.90
31765;DHT22;18338;53.240;8.798;2023-07-20T14:34:16;28.30;96.30
31765;DHT22;18338;53.240;8.798;2023-07-20T14:36:43;28.60;96.30
31765;DHT22;18338;53.240;8.798;2023-07-20T14:39:10;29.80;94.90
31765;DHT22;18338;53.240;8.798;2023-07-20T14:41:36;30.70;90.90
31765;DHT22;18338;53.240;8.798;2023-07-20T14:44:04;31.50;86.80
31765;DHT22;18338;53.240;8.798;2023-07-20T14:46:31;31.50;88.50
31765;DHT22;18338;53.240;8.798;2023-07-20T14:48:59;31.20;86.60
31765;DHT22;18338;53.240;8.798;2023-07-20T14:51:26;31.60;84.60
31765;DHT22;18338;53.240;8.798;2023-07-20T14:54:01;31.50;82.40
31765;DHT22;18338;53.240;8.798;2023-07-20T14:56:28;31.30;79.70
31765;DHT22;18338;53.240;8.798;2023-07-20T14:58:55;30.20;77.80
31765;DHT22;18338;53.240;8.798;2023-07-20T15:01:24;28.00;81.80
31765;DHT22;18338;53.240;8.798;2023-07-20T15:03:51;27.20;87.70
31765;DHT22;18338;53.240;8.798;2023-07-20T15:06:23;27.60;85.50
31765;DHT22;18338;53.240;8.798;2023-07-20T15:08:51;28.10;86.60
31765;DHT22;18338;53.240;8.798;2023-07-20T15:11:18;29.60;84.80
31765;DHT22;18338;53.240;8.798;2023-07-20T15:13:44;30.30;80.40
31765;DHT22;18338;53.240;8.798;2023-07-20T15:16:11;29.30;80.90
31765;DHT22;18338;53.240;8.798;2023-07-20T15:18:38;28.60;83.00
31765;DHT22;18338;53.240;8.798;2023-07-20T15:21:14;28.40;85.20
31765;DHT22;18338;53.240;8.798;2023-07-20T15:23:42;26.90;89.50
31765;DHT22;18338;53.240;8.798;2023-07-20T15:26:09;26.60;89.90
31765;DHT22;18338;53.240;8.798;2023-07-20T15:28:38;26.40;90.60
31765;DHT22;18338;53.240;8.798;2023-07-20T15:31:05;26.30;91.60
31765;DHT22;18338;53.240;8.798;2023-07-20T15:33:32;25.90;91.70
31765;DHT22;18338;53.240;8.798;2023-07-20T15:35:59;25.60;95.10
31765;DHT22;18338;53.240;8.798;2023-07-20T15:38:25;25.50;95.40
31765;DHT22;18338;53.240;8.798;2023-07-20T15:40:53;25.30;96.10
31765;DHT22;18338;53.240;8.798;2023-07-20T15:43:21;25.20;96.10
31765;DHT22;18338;53.240;8.798;2023-07-20T15:45:49;24.80;97.60
31765;DHT22;18338;53.240;8.798;2023-07-20T15:48:18;24.30;96.80
31765;DHT22;18338;53.240;8.798;2023-07-20T15:50:49;24.10;97.40
31765;DHT22;18338;53.240;8.798;2023-07-20T15:53:16;23.90;98.60
31765;DHT22;18338;53.240;8.798;2023-07-20T15:55:43;23.80;98.50
31765;DHT22;18338;53.240;8.798;2023-07-20T15:58:10;23.70;98.50
31765;DHT22;18338;53.240;8.798;2023-07-20T16:00:37;23.70;99.90
31765;DHT22;18338;53.240;8.798;2023-07-20T16:03:04;23.70;99.90